createdAt,value
2023-05-17T00:03:43.737Z,10.13
2023-05-17T00:07:07.086Z,11.50
2023-05-17T00:13:17.302Z,10.97
2023-05-17T00:16:40.851Z,11.37
2023-05-17T00:22:52.827Z,11.53
2023-05-17T00:29:03.893Z,10.20
2023-05-17T00:35:14.074Z,11.40
2023-05-17T00:38:37.816Z,9.63
2023-05-17T00:44:50.077Z,10.17
2023-05-17T00:48:13.575Z,8.40
2023-05-17T00:54:24.553Z,8.73
2023-05-17T00:56:59.804Z,8.27
2023-05-17T01:04:04.563Z,9.10
2023-05-17T01:10:16.004Z,8.77
2023-05-17T01:13:39.360Z,9.23
2023-05-17T01:16:19.951Z,9.57
2023-05-17T01:22:41.585Z,9.17
2023-05-17T01:25:51.886Z,10.33
2023-05-17T01:35:44.796Z,9.83
2023-05-17T01:42:01.316Z,10.70
2023-05-17T01:48:19.347Z,11.23
2023-05-17T01:51:42.904Z,13.73
2023-05-17T01:57:57.777Z,16.60
2023-05-17T02:01:17.363Z,18.40
2023-05-17T02:07:27.462Z,17.00
2023-05-17T02:10:57.467Z,19.27
2023-05-17T02:14:27.569Z,19.83
2023-05-17T02:20:45.486Z,17.40
2023-05-17T02:26:55.618Z,19.23
2023-05-17T02:36:48.820Z,19.33
2023-05-17T02:40:12.174Z,24.17
2023-05-17T02:46:22.016Z,18.47
2023-05-17T02:49:45.658Z,21.37
2023-05-17T02:55:58.816Z,23.27
2023-05-17T03:02:08.825Z,30.40
2023-05-17T03:05:32.117Z,22.90
2023-05-17T03:11:43.557Z,27.47
2023-05-17T03:15:07.128Z,29.10
2023-05-17T03:21:17.172Z,21.80
2023-05-17T03:27:28.877Z,24.17
2023-05-17T03:37:19.581Z,25.97
2023-05-17T03:40:43.462Z,27.33
2023-05-17T03:46:55.119Z,42.00
2023-05-17T03:50:18.632Z,27.20
2023-05-17T03:56:29.040Z,23.43
2023-05-17T03:59:52.375Z,21.93
2023-05-17T04:06:08.759Z,23.60
2023-05-17T04:12:18.839Z,22.70
2023-05-17T04:18:28.856Z,23.97
2023-05-17T04:24:39.897Z,28.53
2023-05-17T04:30:49.618Z,23.43
2023-05-17T04:37:00.200Z,24.27
2023-05-17T04:43:11.439Z,23.63
2023-05-17T04:49:21.479Z,24.70
2023-05-17T04:52:44.590Z,25.87
2023-05-17T04:58:56.249Z,22.87
2023-05-17T05:05:10.453Z,21.73
2023-05-17T05:11:20.625Z,21.53
2023-05-17T05:17:32.995Z,23.10
2023-05-17T05:23:43.102Z,20.17
2023-05-17T05:29:52.942Z,21.50
2023-05-17T05:36:04.683Z,19.90
2023-05-17T05:42:15.622Z,28.57
2023-05-17T05:48:27.358Z,20.23
2023-05-17T05:54:38.668Z,16.70
2023-05-17T05:58:01.818Z,15.63
2023-05-17T06:04:11.986Z,17.10
2023-05-17T06:07:35.903Z,18.53
2023-05-17T06:13:47.922Z,15.23
2023-05-17T06:19:57.718Z,18.70
2023-05-17T06:23:21.231Z,14.03
2023-05-17T06:29:32.855Z,15.20
2023-05-17T06:35:54.839Z,14.00
2023-05-17T06:42:08.384Z,14.63
2023-05-17T06:48:20.065Z,13.43
2023-05-17T06:51:44.023Z,16.10
2023-05-17T06:57:54.384Z,12.43
2023-05-17T07:04:05.796Z,15.37
2023-05-17T07:10:15.837Z,11.87
2023-05-17T07:12:55.958Z,13.60
2023-05-17T07:16:19.335Z,14.07
2023-05-17T07:22:31.046Z,11.73
2023-05-17T07:28:41.299Z,11.47
2023-05-17T07:32:04.753Z,11.87
2023-05-17T07:45:38.096Z,8.57
2023-05-17T07:51:51.005Z,9.80
2023-05-17T07:58:01.021Z,9.47
2023-05-17T08:01:24.921Z,9.00
2023-05-17T08:07:39.153Z,9.17
2023-05-17T08:11:02.844Z,8.90
2023-05-17T08:17:12.760Z,9.07
2023-05-17T08:23:24.285Z,9.17
2023-05-17T08:26:47.940Z,9.17
2023-05-17T08:32:58.456Z,8.70
2023-05-17T08:42:52.264Z,9.47
2023-05-17T08:49:04.356Z,8.73
2023-05-17T08:52:28.139Z,9.83
2023-05-17T08:58:55.352Z,8.67
2023-05-17T09:02:20.451Z,10.40
2023-05-17T09:05:00.334Z,9.10
2023-05-17T09:11:10.576Z,8.23
2023-05-17T09:17:23.334Z,8.87
2023-05-17T09:20:47.240Z,7.10
2023-05-17T09:27:03.867Z,6.80
2023-05-17T09:34:09.030Z,7.47
2023-05-17T09:44:03.385Z,6.90
2023-05-17T09:50:20.653Z,6.07
2023-05-17T09:56:31.477Z,6.17
2023-05-17T10:02:44.297Z,7.50
2023-05-17T10:06:08.183Z,6.47
2023-05-17T10:12:24.367Z,5.53
2023-05-17T10:18:38.699Z,5.47
2023-05-17T10:24:49.568Z,5.57
2023-05-17T10:31:01.007Z,5.63
2023-05-17T10:34:24.462Z,7.27
2023-05-17T10:44:18.395Z,7.10
2023-05-17T10:47:06.710Z,7.60
2023-05-17T10:53:17.047Z,9.93
2023-05-17T10:56:40.522Z,8.13
2023-05-17T11:02:52.543Z,9.13
2023-05-17T11:09:10.051Z,11.93
2023-05-17T11:15:20.129Z,9.40
2023-05-17T11:18:39.737Z,9.60
2023-05-17T11:24:55.305Z,10.47
2023-05-17T11:31:05.768Z,7.70
2023-05-17T11:37:28.373Z,9.37
2023-05-17T11:40:07.729Z,7.63
2023-05-17T11:46:24.656Z,9.40
2023-05-17T11:49:03.287Z,10.90
2023-05-17T11:55:17.496Z,12.10
2023-05-17T12:01:27.539Z,12.37
2023-05-17T12:07:38.530Z,12.93
2023-05-17T12:11:02.289Z,10.17
2023-05-17T12:13:49.230Z,10.63
2023-05-17T12:20:10.002Z,8.07
2023-05-17T12:26:22.072Z,7.73
2023-05-17T12:32:33.703Z,7.30
2023-05-17T12:35:57.221Z,9.27
2023-05-17T12:45:49.850Z,7.73
2023-05-17T12:49:13.576Z,7.13
2023-05-17T12:52:08.369Z,8.00
2023-05-17T12:58:18.513Z,11.13
2023-05-17T13:04:32.690Z,11.37
2023-05-17T13:07:26.204Z,6.77
2023-05-17T13:13:36.750Z,9.60
2023-05-17T13:19:47.143Z,11.60
2023-05-17T13:25:58.543Z,11.87
2023-05-17T13:32:09.188Z,9.83
2023-05-17T13:38:19.723Z,11.53
2023-05-17T13:48:12.347Z,8.13
2023-05-17T13:51:36.443Z,10.07
2023-05-17T13:54:25.026Z,14.43
2023-05-17T14:00:34.882Z,11.23
2023-05-17T14:07:38.790Z,6.60
2023-05-17T14:13:50.349Z,8.40
2023-05-17T14:20:00.973Z,9.90
2023-05-17T14:26:12.125Z,9.27
2023-05-17T14:32:55.641Z,10.83
2023-05-17T14:36:19.412Z,9.07
2023-05-17T14:42:31.282Z,11.53
2023-05-17T14:48:41.661Z,9.73
2023-05-17T14:51:23.577Z,6.63
2023-05-17T14:57:35.462Z,6.60
2023-05-17T15:03:45.529Z,12.87
2023-05-17T15:09:55.794Z,9.93
2023-05-17T15:16:08.237Z,10.57
2023-05-17T15:19:10.887Z,7.30
2023-05-17T15:25:21.060Z,11.50
2023-05-17T15:31:33.119Z,13.03
2023-05-17T15:37:43.453Z,10.93
2023-05-17T15:43:53.543Z,9.80
2023-05-17T15:50:05.426Z,9.67
2023-05-17T15:56:17.600Z,9.30
2023-05-17T16:02:29.473Z,10.23
2023-05-17T16:08:41.185Z,8.33
2023-05-17T16:14:51.240Z,12.27
2023-05-17T16:17:38.129Z,11.13
2023-05-17T16:23:50.641Z,13.53
2023-05-17T16:33:41.905Z,13.13
2023-05-17T16:39:53.521Z,8.33
2023-05-17T16:49:45.178Z,11.47
2023-05-17T16:55:57.267Z,9.00
2023-05-17T17:02:08.036Z,11.33
2023-05-17T17:08:18.260Z,15.97
2023-05-17T17:14:29.757Z,18.30
2023-05-17T17:17:53.239Z,12.97
2023-05-17T17:24:04.474Z,13.97
2023-05-17T17:27:28.149Z,13.27
2023-05-17T17:33:39.679Z,13.43
2023-05-17T17:37:03.125Z,16.23
2023-05-17T17:43:13.302Z,14.33
2023-05-17T17:53:05.384Z,14.57
2023-05-17T17:56:29.114Z,14.03
2023-05-17T18:02:39.397Z,12.97
2023-05-17T18:08:51.698Z,14.67
2023-05-17T18:15:01.734Z,16.93
2023-05-17T18:18:25.525Z,12.27
2023-05-17T18:24:38.042Z,14.00
2023-05-17T18:28:01.809Z,13.73
2023-05-17T18:31:03.229Z,13.40
2023-05-17T18:37:13.664Z,10.40
2023-05-17T18:43:26.079Z,11.40
2023-05-17T18:53:17.089Z,12.90
2023-05-17T18:56:40.763Z,12.67
2023-05-17T19:02:52.568Z,12.53
2023-05-17T19:09:03.574Z,12.50
2023-05-17T19:12:27.209Z,13.47
2023-05-17T19:18:40.195Z,16.67
2023-05-17T19:24:51.353Z,11.87
2023-05-17T19:31:02.066Z,14.00
2023-05-17T19:37:14.515Z,10.73
2023-05-17T19:43:26.250Z,11.47
2023-05-17T19:49:36.812Z,14.37
2023-05-17T19:55:48.353Z,8.90
2023-05-17T19:59:12.049Z,9.67
2023-05-17T20:05:22.643Z,12.03
2023-05-17T20:11:34.697Z,15.00
2023-05-17T20:17:44.637Z,10.43
2023-05-17T20:21:08.064Z,9.53
2023-05-17T20:27:20.674Z,10.80
2023-05-17T20:33:30.889Z,11.77
2023-05-17T20:39:40.960Z,9.13
2023-05-17T20:45:54.027Z,10.83
2023-05-17T20:55:46.201Z,14.10
2023-05-17T21:01:58.001Z,9.60
2023-05-17T21:08:08.984Z,11.53
2023-05-17T21:14:18.902Z,10.13
2023-05-17T21:20:30.843Z,13.97
2023-05-17T21:26:41.397Z,13.13
2023-05-17T21:32:51.643Z,19.97
2023-05-17T21:36:15.262Z,16.07
2023-05-17T21:42:26.528Z,16.93
2023-05-17T21:45:18.915Z,13.13
2023-05-17T21:51:29.446Z,12.70
2023-05-17T21:57:40.962Z,8.17
2023-05-17T22:00:53.723Z,10.47
2023-05-17T22:04:17.462Z,8.40
2023-05-17T22:10:27.675Z,11.23
2023-05-17T22:16:40.302Z,10.07
2023-05-17T22:22:49.861Z,13.93
2023-05-17T22:28:59.979Z,14.37
2023-05-17T22:35:12.404Z,10.63
2023-05-17T22:41:25.386Z,10.03
2023-05-17T22:44:49.042Z,15.50
2023-05-17T22:51:01.199Z,8.20
2023-05-17T22:57:11.179Z,11.37
2023-05-17T23:00:35.278Z,10.97
2023-05-17T23:06:47.620Z,10.23
2023-05-17T23:10:11.486Z,12.67
2023-05-17T23:16:26.652Z,8.57
2023-05-17T23:22:38.368Z,9.77
2023-05-17T23:26:01.731Z,12.00
2023-05-17T23:32:12.094Z,8.77
2023-05-17T23:35:35.454Z,6.70
2023-05-17T23:41:50.733Z,6.90
2023-05-17T23:45:14.714Z,11.37
2023-05-17T23:51:24.922Z,13.03
2023-05-17T23:57:36.590Z,12.63
